Time;durP1;ratioP1;P1;durP2;ratioP2;P2;SDS_P1;SDS_P2;PMS_P1;PMS_P2;Temp;Humidity;BMP_temperature;BMP_pressure;BME280_temperature;BME280_humidity;BME280_pressure;Samples;Min_cycle;Max_cycle;Signal;HPM_P1;HPM_P2
2023/03/20 00:00:45;;;;;;;41.77;20.10;;;;;;;;;;5086163;28;20427;-43
2023/03/20 00:03:12;;;;;;;41.00;21.03;;;;;;;;;;5091755;28;20435;-44
2023/03/20 00:05:38;;;;;;;39.90;20.10;;;;;;;;;;5091617;28;20411;-44
2023/03/20 00:08:04;;;;;;;38.43;19.13;;;;;;;;;;5091690;28;20472;-44
2023/03/20 00:10:43;;;;;;;34.27;19.63;;;;;;;;;;5090886;28;20540;-43
2023/03/20 00:13:18;;;;;;;30.93;17.27;;;;;;;;;;5088493;28;20442;-44
2023/03/20 00:15:44;;;;;;;34.77;18.87;;;;;;;;;;5090647;28;20462;-44
2023/03/20 00:18:18;;;;;;;38.70;20.00;;;;;;;;;;5091525;28;20431;-45
2023/03/20 00:20:47;;;;;;;39.73;20.97;;;;;;;;;;5089148;28;20412;-43
2023/03/20 00:23:13;;;;;;;38.93;19.40;;;;;;;;;;5091474;28;20434;-43
2023/03/20 00:25:40;;;;;;;42.70;19.80;;;;;;;;;;5091586;28;20423;-44
2023/03/20 00:28:25;;;;;;;31.20;17.93;;;;;;;;;;5088078;28;20430;-44
2023/03/20 00:30:51;;;;;;;32.40;16.53;;;;;;;;;;5088491;28;20544;-44
2023/03/20 00:33:17;;;;;;;30.17;16.40;;;;;;;;;;5091443;28;20484;-44
2023/03/20 00:35:43;;;;;;;27.50;16.27;;;;;;;;;;5086047;28;20455;-44
2023/03/20 00:38:09;;;;;;;27.60;16.27;;;;;;;;;;5088022;28;20933;-43
2023/03/20 00:40:35;;;;;;;34.33;17.63;;;;;;;;;;5090662;28;20437;-43
2023/03/20 00:43:03;;;;;;;33.97;19.83;;;;;;;;;;5086748;28;20474;-43
2023/03/20 00:45:30;;;;;;;38.83;19.50;;;;;;;;;;5091405;28;20417;-44
2023/03/20 00:47:57;;;;;;;32.57;18.30;;;;;;;;;;5090804;28;20982;-44
2023/03/20 00:50:24;;;;;;;37.07;19.77;;;;;;;;;;5094509;28;20504;-44
2023/03/20 00:52:51;;;;;;;36.93;19.50;;;;;;;;;;5095194;28;20791;-43
2023/03/20 00:55:18;;;;;;;38.27;18.90;;;;;;;;;;5095208;28;20518;-44
2023/03/20 00:57:53;;;;;;;34.30;19.57;;;;;;;;;;5095032;28;20875;-44
2023/03/20 01:00:39;;;;;;;44.73;20.60;;;;;;;;;;5094276;28;20464;-44
2023/03/20 01:03:16;;;;;;;31.67;18.90;;;;;;;;;;5081026;28;20454;-43
2023/03/20 01:05:42;;;;;;;34.20;17.77;;;;;;;;;;5091507;28;20972;-44
2023/03/20 01:08:26;;;;;;;30.60;17.47;;;;;;;;;;5086873;28;20411;-43
2023/03/20 01:10:54;;;;;;;27.67;15.63;;;;;;;;;;5094122;28;20903;-43
2023/03/20 01:13:24;;;;;;;26.67;16.30;;;;;;;;;;5094617;28;20779;-44
2023/03/20 01:15:51;;;;;;;25.73;15.07;;;;;;;;;;5093098;28;20505;-43
2023/03/20 01:18:18;;;;;;;25.00;14.87;;;;;;;;;;5094670;28;20403;-44
2023/03/20 01:20:44;;;;;;;29.20;15.40;;;;;;;;;;5093809;28;20823;-43
2023/03/20 01:23:10;;;;;;;24.80;13.70;;;;;;;;;;5094628;28;20830;-44
2023/03/20 01:25:37;;;;;;;25.50;15.27;;;;;;;;;;5094614;28;20457;-44
2023/03/20 01:28:07;;;;;;;28.57;16.10;;;;;;;;;;5087898;28;20844;-43
2023/03/20 01:30:33;;;;;;;24.00;12.83;;;;;;;;;;5089125;28;20432;-43
2023/03/20 01:33:00;;;;;;;33.00;15.03;;;;;;;;;;5091113;28;20440;-43
2023/03/20 01:35:27;;;;;;;25.67;14.23;;;;;;;;;;5094306;28;20502;-45
2023/03/20 01:37:55;;;;;;;23.47;14.87;;;;;;;;;;5091103;28;20430;-43
2023/03/20 01:40:21;;;;;;;29.33;15.83;;;;;;;;;;5087027;28;20454;-43
2023/03/20 01:42:47;;;;;;;27.87;15.10;;;;;;;;;;5094132;28;20465;-44
2023/03/20 01:45:19;;;;;;;23.20;12.23;;;;;;;;;;5092746;28;20409;-44
2023/03/20 01:47:45;;;;;;;25.10;13.30;;;;;;;;;;5094136;28;20419;-43
2023/03/20 01:50:30;;;;;;;29.23;13.60;;;;;;;;;;5093500;28;20419;-43
2023/03/20 01:53:09;;;;;;;27.57;13.70;;;;;;;;;;5093956;28;20530;-44
2023/03/20 01:55:36;;;;;;;29.30;14.23;;;;;;;;;;5086684;28;20469;-43
2023/03/20 01:58:06;;;;;;;21.90;13.10;;;;;;;;;;5090715;28;20982;-44
2023/03/20 02:00:32;;;;;;;22.47;13.43;;;;;;;;;;5092059;28;20403;-45
2023/03/20 02:02:58;;;;;;;22.43;12.13;;;;;;;;;;5093214;28;20460;-43
2023/03/20 02:05:24;;;;;;;21.20;11.77;;;;;;;;;;5093415;28;20404;-45
2023/03/20 02:07:56;;;;;;;20.13;12.10;;;;;;;;;;5087832;28;21089;-43
2023/03/20 02:10:22;;;;;;;18.90;10.80;;;;;;;;;;5088034;28;20889;-43
2023/03/20 02:12:48;;;;;;;21.97;11.50;;;;;;;;;;5090217;28;20515;-43
2023/03/20 02:15:15;;;;;;;25.47;10.30;;;;;;;;;;5093516;28;21071;-43
2023/03/20 02:17:42;;;;;;;19.87;10.47;;;;;;;;;;5090956;28;20421;-43
2023/03/20 02:20:26;;;;;;;20.20;11.83;;;;;;;;;;5088667;28;20421;-45
2023/03/20 02:23:11;;;;;;;20.13;11.37;;;;;;;;;;5092194;28;20441;-44
2023/03/20 02:25:57;;;;;;;19.00;10.40;;;;;;;;;;5089054;28;20425;-43
2023/03/20 02:28:23;;;;;;;23.97;11.90;;;;;;;;;;5078189;28;20918;-43
2023/03/20 02:31:05;;;;;;;17.20;11.20;;;;;;;;;;5092634;28;20460;-43
2023/03/20 02:33:34;;;;;;;17.07;10.23;;;;;;;;;;5093183;28;20976;-43
2023/03/20 02:36:00;;;;;;;19.33;11.03;;;;;;;;;;5092808;28;20780;-43
2023/03/20 02:38:26;;;;;;;20.60;10.60;;;;;;;;;;5093066;28;20467;-43
2023/03/20 02:41:03;;;;;;;19.50;10.93;;;;;;;;;;5091112;28;20558;-43
2023/03/20 02:43:38;;;;;;;17.67;11.10;;;;;;;;;;5092924;28;20429;-44
2023/03/20 02:46:19;;;;;;;16.80;10.40;;;;;;;;;;5088629;28;20411;-44
2023/03/20 02:48:51;;;;;;;19.10;11.83;;;;;;;;;;5092766;28;20495;-43
2023/03/20 02:51:17;;;;;;;15.47;9.90;;;;;;;;;;5092250;28;20411;-43
2023/03/20 02:53:48;;;;;;;13.87;9.43;;;;;;;;;;5091515;28;20915;-44
2023/03/20 02:56:19;;;;;;;16.13;10.20;;;;;;;;;;5092752;28;20494;-43
2023/03/20 02:58:51;;;;;;;14.90;8.40;;;;;;;;;;5087639;28;20412;-43
2023/03/20 03:01:21;;;;;;;17.03;9.70;;;;;;;;;;5089663;28;20409;-43
2023/03/20 03:03:50;;;;;;;14.90;9.60;;;;;;;;;;5092686;28;20477;-44
2023/03/20 03:06:16;;;;;;;13.30;8.47;;;;;;;;;;5092628;28;20773;-43
2023/03/20 03:08:44;;;;;;;13.47;7.80;;;;;;;;;;5091104;28;20418;-44
2023/03/20 03:11:12;;;;;;;14.73;8.37;;;;;;;;;;5083481;28;20479;-43
2023/03/20 03:13:41;;;;;;;14.70;7.67;;;;;;;;;;5092389;28;20456;-43
2023/03/20 03:16:13;;;;;;;11.37;7.70;;;;;;;;;;5092217;28;20464;-44
2023/03/20 03:18:43;;;;;;;11.33;7.53;;;;;;;;;;5092276;28;20504;-44
2023/03/20 03:21:11;;;;;;;15.23;7.67;;;;;;;;;;5091305;28;21006;-43
2023/03/20 03:23:43;;;;;;;12.40;8.43;;;;;;;;;;5091090;28;20801;-43
2023/03/20 03:26:12;;;;;;;10.90;7.80;;;;;;;;;;5092257;28;20414;-43
2023/03/20 03:28:46;;;;;;;13.67;8.60;;;;;;;;;;5084325;28;20834;-44
2023/03/20 03:31:14;;;;;;;13.67;8.70;;;;;;;;;;5082673;28;20789;-43
2023/03/20 03:33:42;;;;;;;12.50;7.70;;;;;;;;;;5091848;28;20498;-43
2023/03/20 03:36:11;;;;;;;15.63;8.50;;;;;;;;;;5083596;28;20550;-42
2023/03/20 03:38:36;;;;;;;18.20;8.63;;;;;;;;;;5091962;28;20909;-43
2023/03/20 03:41:24;;;;;;;13.97;8.73;;;;;;;;;;5091462;28;20431;-43
2023/03/20 03:43:59;;;;;;;18.53;8.63;;;;;;;;;;5089549;28;20429;-44
2023/03/20 03:46:32;;;;;;;18.40;10.50;;;;;;;;;;5086169;28;20413;-43
2023/03/20 03:48:59;;;;;;;13.47;10.10;;;;;;;;;;5092008;28;20419;-44
2023/03/20 03:51:27;;;;;;;18.93;9.23;;;;;;;;;;5090191;28;20418;-43
2023/03/20 03:53:59;;;;;;;16.27;10.00;;;;;;;;;;5091867;28;20849;-43
2023/03/20 03:56:27;;;;;;;14.77;8.80;;;;;;;;;;5087396;28;20919;-43
2023/03/20 03:58:56;;;;;;;15.57;8.70;;;;;;;;;;5090118;28;20433;-43
2023/03/20 04:01:23;;;;;;;15.70;8.70;;;;;;;;;;5090205;28;20440;-45
2023/03/20 04:03:51;;;;;;;17.20;8.97;;;;;;;;;;5090611;28;20849;-44
2023/03/20 04:06:17;;;;;;;13.83;8.77;;;;;;;;;;5091662;28;20409;-44
2023/03/20 04:08:44;;;;;;;14.63;7.33;;;;;;;;;;5090530;28;20418;-44
2023/03/20 04:11:18;;;;;;;13.70;8.53;;;;;;;;;;5090906;28;20418;-43
2023/03/20 04:13:45;;;;;;;13.10;8.53;;;;;;;;;;5088683;28;20933;-43
2023/03/20 04:16:14;;;;;;;16.53;9.33;;;;;;;;;;5083710;28;20470;-43
2023/03/20 04:18:40;;;;;;;13.40;9.27;;;;;;;;;;5090389;28;20934;-43
2023/03/20 04:21:07;;;;;;;16.27;8.80;;;;;;;;;;5090934;28;20402;-44
2023/03/20 04:23:33;;;;;;;13.27;8.23;;;;;;;;;;5093712;28;20437;-44
2023/03/20 04:25:59;;;;;;;19.17;9.70;;;;;;;;;;5095690;28;20414;-44
2023/03/20 04:28:26;;;;;;;15.03;8.70;;;;;;;;;;5089957;28;20497;-44
2023/03/20 04:30:56;;;;;;;16.40;8.70;;;;;;;;;;5095039;28;20409;-43
2023/03/20 04:33:22;;;;;;;16.77;8.67;;;;;;;;;;5094603;28;20423;-43
2023/03/20 04:35:48;;;;;;;16.40;9.27;;;;;;;;;;5093909;28;20547;-43
2023/03/20 04:38:15;;;;;;;16.17;9.37;;;;;;;;;;5092961;28;20538;-43
2023/03/20 04:40:44;;;;;;;16.57;9.50;;;;;;;;;;5094766;28;20420;-44
2023/03/20 04:43:11;;;;;;;16.63;9.17;;;;;;;;;;5084312;28;20459;-43
2023/03/20 04:45:39;;;;;;;18.20;9.23;;;;;;;;;;5091331;28;21111;-44
2023/03/20 04:48:05;;;;;;;18.73;9.90;;;;;;;;;;5094904;28;20884;-44
2023/03/20 04:50:32;;;;;;;22.13;10.03;;;;;;;;;;5094574;28;20503;-43
2023/03/20 04:52:58;;;;;;;15.93;9.90;;;;;;;;;;5090765;28;20507;-43
2023/03/20 04:55:25;;;;;;;15.03;9.27;;;;;;;;;;5095295;28;20489;-43
2023/03/20 04:57:51;;;;;;;15.50;8.50;;;;;;;;;;5088468;28;20460;-46
2023/03/20 05:00:18;;;;;;;19.60;10.17;;;;;;;;;;5094448;28;20449;-44
2023/03/20 05:03:11;;;;;;;17.53;9.47;;;;;;;;;;5094891;28;21003;-43
2023/03/20 05:05:37;;;;;;;15.50;8.80;;;;;;;;;;5095240;28;20437;-44
2023/03/20 05:08:06;;;;;;;22.43;11.03;;;;;;;;;;5094899;28;20440;-44
2023/03/20 05:10:32;;;;;;;19.10;10.83;;;;;;;;;;5094240;28;20851;-43
2023/03/20 05:12:58;;;;;;;15.67;10.20;;;;;;;;;;5093035;28;20456;-44
2023/03/20 05:15:25;;;;;;;21.97;10.20;;;;;;;;;;5093451;28;20465;-43
2023/03/20 05:17:51;;;;;;;16.57;10.00;;;;;;;;;;5093311;28;20483;-43
2023/03/20 05:20:17;;;;;;;17.80;10.00;;;;;;;;;;5091748;28;20422;-43
2023/03/20 05:22:43;;;;;;;21.67;9.57;;;;;;;;;;5093261;28;20436;-43
2023/03/20 05:25:09;;;;;;;23.50;11.27;;;;;;;;;;5093408;28;20421;-43
2023/03/20 05:27:35;;;;;;;20.33;11.17;;;;;;;;;;5093379;28;20400;-43
2023/03/20 05:30:01;;;;;;;27.13;10.57;;;;;;;;;;5084763;28;20426;-45
2023/03/20 05:32:27;;;;;;;18.90;10.60;;;;;;;;;;5092640;28;20510;-44
2023/03/20 05:34:53;;;;;;;22.07;10.90;;;;;;;;;;5092968;28;20965;-45
2023/03/20 05:37:19;;;;;;;19.10;11.40;;;;;;;;;;5092946;28;20493;-44
2023/03/20 05:39:45;;;;;;;16.47;10.27;;;;;;;;;;5087472;28;20431;-44
2023/03/20 05:42:11;;;;;;;19.00;9.73;;;;;;;;;;5092550;28;20400;-44
2023/03/20 05:44:37;;;;;;;21.23;10.83;;;;;;;;;;5093025;28;20405;-44
2023/03/20 05:47:03;;;;;;;21.23;11.13;;;;;;;;;;5090423;28;20764;-45
2023/03/20 05:49:29;;;;;;;19.67;11.40;;;;;;;;;;5091034;28;20467;-44
2023/03/20 05:51:55;;;;;;;23.93;10.87;;;;;;;;;;5092343;28;20406;-44
2023/03/20 05:54:21;;;;;;;20.17;10.60;;;;;;;;;;5092799;28;20425;-45
2023/03/20 05:56:47;;;;;;;16.90;10.87;;;;;;;;;;5092853;28;20958;-44
2023/03/20 05:59:13;;;;;;;19.40;9.73;;;;;;;;;;5092890;28;21018;-44
2023/03/20 06:01:39;;;;;;;19.43;10.70;;;;;;;;;;5092008;28;20909;-45
2023/03/20 06:04:07;;;;;;;23.53;12.50;;;;;;;;;;5092702;28;20919;-45
2023/03/20 06:06:36;;;;;;;17.90;10.90;;;;;;;;;;5088051;28;20433;-44
2023/03/20 06:09:02;;;;;;;19.00;11.50;;;;;;;;;;5084441;28;20424;-45
2023/03/20 06:11:28;;;;;;;19.77;10.83;;;;;;;;;;5091944;28;20907;-44
2023/03/20 06:13:56;;;;;;;21.40;12.30;;;;;;;;;;5092532;28;20437;-45
2023/03/20 06:16:22;;;;;;;19.47;11.70;;;;;;;;;;5056501;28;1047763;-45
2023/03/20 06:18:48;;;;;;;23.50;11.87;;;;;;;;;;5093457;28;20964;-44
2023/03/20 06:21:15;;;;;;;18.30;10.70;;;;;;;;;;5092874;28;20888;-45
2023/03/20 06:23:40;;;;;;;22.00;12.20;;;;;;;;;;5093112;28;20432;-44
2023/03/20 06:26:07;;;;;;;23.67;11.70;;;;;;;;;;5093342;28;20788;-44
2023/03/20 06:28:33;;;;;;;19.67;10.87;;;;;;;;;;5084684;28;20692;-44
2023/03/20 06:30:59;;;;;;;22.67;11.67;;;;;;;;;;5088682;28;20464;-44
2023/03/20 06:33:25;;;;;;;17.60;9.87;;;;;;;;;;5087358;28;20432;-44
2023/03/20 06:35:51;;;;;;;19.23;10.87;;;;;;;;;;5092203;28;20499;-45
2023/03/20 06:38:17;;;;;;;21.37;10.17;;;;;;;;;;5089789;28;20429;-45
2023/03/20 06:40:44;;;;;;;19.37;10.60;;;;;;;;;;5091875;28;20515;-45
2023/03/20 06:43:11;;;;;;;18.57;11.57;;;;;;;;;;5092971;28;21038;-45
2023/03/20 06:45:37;;;;;;;22.80;12.40;;;;;;;;;;5092508;28;20449;-44
2023/03/20 06:48:05;;;;;;;18.33;12.03;;;;;;;;;;5092881;28;20418;-45
2023/03/20 06:50:31;;;;;;;17.93;10.30;;;;;;;;;;5092202;28;20412;-45
2023/03/20 06:52:57;;;;;;;23.30;12.47;;;;;;;;;;5092321;28;20442;-44
2023/03/20 06:55:23;;;;;;;26.43;12.87;;;;;;;;;;5090192;28;20480;-45
2023/03/20 06:57:49;;;;;;;22.33;11.27;;;;;;;;;;5091524;28;20425;-45
2023/03/20 07:00:15;;;;;;;23.17;11.80;;;;;;;;;;5091088;28;20402;-45
2023/03/20 07:02:42;;;;;;;22.80;11.33;;;;;;;;;;5092372;28;20486;-45
2023/03/20 07:05:09;;;;;;;18.53;10.40;;;;;;;;;;5092051;28;20412;-44
2023/03/20 07:07:35;;;;;;;18.63;11.40;;;;;;;;;;5091846;28;20422;-44
2023/03/20 07:10:03;;;;;;;16.70;9.87;;;;;;;;;;5091744;28;20938;-44
2023/03/20 07:12:29;;;;;;;18.43;9.33;;;;;;;;;;5091600;28;20443;-45
2023/03/20 07:14:55;;;;;;;17.17;9.30;;;;;;;;;;5091496;28;20468;-45
2023/03/20 07:17:21;;;;;;;16.20;8.67;;;;;;;;;;5091931;28;20901;-45
2023/03/20 07:19:47;;;;;;;16.23;9.00;;;;;;;;;;5091459;28;20406;-45
2023/03/20 07:22:20;;;;;;;22.83;9.43;;;;;;;;;;5090308;28;20495;-44
2023/03/20 07:24:46;;;;;;;17.30;10.00;;;;;;;;;;5089378;28;20425;-45
2023/03/20 07:27:12;;;;;;;15.57;9.10;;;;;;;;;;5091978;28;20407;-45
2023/03/20 07:29:38;;;;;;;14.30;9.53;;;;;;;;;;5090934;28;20415;-45
2023/03/20 07:32:04;;;;;;;15.10;10.07;;;;;;;;;;5091252;28;20774;-45
2023/03/20 07:34:30;;;;;;;12.70;7.83;;;;;;;;;;5090752;28;20410;-45
2023/03/20 07:36:56;;;;;;;15.83;9.33;;;;;;;;;;5091954;28;20418;-44
2023/03/20 07:39:23;;;;;;;14.10;8.30;;;;;;;;;;5090656;28;20411;-44
2023/03/20 07:41:49;;;;;;;11.80;7.43;;;;;;;;;;5091387;28;20412;-44
2023/03/20 07:44:18;;;;;;;14.73;8.00;;;;;;;;;;5091908;28;20424;-44
2023/03/20 07:46:45;;;;;;;13.87;7.47;;;;;;;;;;5091946;28;20418;-45
2023/03/20 07:49:12;;;;;;;12.60;8.17;;;;;;;;;;5091742;28;20416;-44
2023/03/20 07:51:38;;;;;;;15.10;8.10;;;;;;;;;;5091005;28;20778;-45
2023/03/20 07:54:04;;;;;;;13.90;8.30;;;;;;;;;;5089920;28;20443;-45
2023/03/20 07:56:30;;;;;;;12.60;7.20;;;;;;;;;;5090715;28;20959;-44
2023/03/20 07:58:56;;;;;;;12.33;7.07;;;;;;;;;;5091583;28;20404;-45
2023/03/20 08:01:22;;;;;;;10.07;6.90;;;;;;;;;;5091229;28;20448;-45
2023/03/20 08:03:48;;;;;;;12.10;6.80;;;;;;;;;;5091493;28;20435;-45
2023/03/20 08:06:14;;;;;;;9.93;6.10;;;;;;;;;;5091764;28;20425;-45
2023/03/20 08:08:40;;;;;;;12.10;5.97;;;;;;;;;;5091517;28;20419;-45
2023/03/20 08:11:06;;;;;;;9.33;5.40;;;;;;;;;;5091090;28;20839;-46
2023/03/20 08:13:32;;;;;;;17.03;6.90;;;;;;;;;;5091540;28;20942;-45
2023/03/20 08:15:58;;;;;;;7.93;5.60;;;;;;;;;;5091358;28;20463;-45
2023/03/20 08:18:24;;;;;;;7.50;4.90;;;;;;;;;;5091549;28;20400;-45
2023/03/20 08:20:51;;;;;;;9.10;5.67;;;;;;;;;;5090882;28;20411;-45
2023/03/20 08:23:17;;;;;;;7.27;5.40;;;;;;;;;;5091456;28;20450;-45
2023/03/20 08:25:47;;;;;;;11.40;5.87;;;;;;;;;;5087329;28;20935;-45
2023/03/20 08:28:12;;;;;;;8.03;5.00;;;;;;;;;;5091480;28;20903;-45
2023/03/20 08:30:38;;;;;;;7.47;5.50;;;;;;;;;;5090661;28;20498;-44
2023/03/20 08:33:05;;;;;;;9.40;5.07;;;;;;;;;;5089567;28;20477;-45
2023/03/20 08:35:31;;;;;;;7.73;5.40;;;;;;;;;;5090239;28;20462;-44
2023/03/20 08:37:57;;;;;;;8.17;5.20;;;;;;;;;;5087624;28;20403;-43
2023/03/20 08:40:23;;;;;;;11.87;5.87;;;;;;;;;;5088255;28;20878;-43
2023/03/20 08:42:49;;;;;;;13.53;5.17;;;;;;;;;;5096008;28;20468;-45
2023/03/20 08:45:15;;;;;;;8.27;6.07;;;;;;;;;;5091358;28;20463;-45
2023/03/20 08:47:41;;;;;;;13.20;6.33;;;;;;;;;;5091330;28;20407;-45
2023/03/20 08:50:08;;;;;;;9.40;5.50;;;;;;;;;;5090565;28;20477;-44
2023/03/20 08:52:34;;;;;;;9.23;5.43;;;;;;;;;;5091124;28;20432;-45
2023/03/20 08:55:00;;;;;;;7.80;6.00;;;;;;;;;;5090320;28;20512;-45
2023/03/20 08:57:26;;;;;;;8.93;4.87;;;;;;;;;;5085098;28;20492;-45
2023/03/20 08:59:52;;;;;;;8.20;5.80;;;;;;;;;;5090682;28;20403;-45
2023/03/20 09:02:18;;;;;;;8.70;5.73;;;;;;;;;;5083963;28;20420;-45
2023/03/20 09:04:44;;;;;;;7.97;5.23;;;;;;;;;;5090838;28;20418;-45
2023/03/20 09:07:10;;;;;;;10.20;6.60;;;;;;;;;;5091095;28;20406;-44
2023/03/20 09:09:36;;;;;;;12.13;6.83;;;;;;;;;;5093337;28;20521;-45
2023/03/20 09:12:02;;;;;;;12.13;6.27;;;;;;;;;;5093965;28;20404;-45
2023/03/20 09:14:28;;;;;;;17.57;5.60;;;;;;;;;;5094779;28;20429;-45
2023/03/20 09:16:54;;;;;;;12.60;6.13;;;;;;;;;;5093122;28;20428;-45
2023/03/20 09:19:20;;;;;;;11.17;6.40;;;;;;;;;;5094545;28;20925;-45
2023/03/20 09:21:47;;;;;;;9.20;6.07;;;;;;;;;;5092087;28;20411;-45
2023/03/20 09:24:13;;;;;;;13.13;5.60;;;;;;;;;;5094584;28;20523;-45
2023/03/20 09:26:39;;;;;;;14.10;6.17;;;;;;;;;;5094477;28;20455;-45
2023/03/20 09:29:05;;;;;;;9.10;6.30;;;;;;;;;;5086773;28;20514;-44
2023/03/20 09:31:32;;;;;;;11.20;6.30;;;;;;;;;;5093811;28;20408;-45
2023/03/20 09:33:58;;;;;;;10.67;7.03;;;;;;;;;;5094153;28;20473;-45
2023/03/20 09:36:24;;;;;;;10.50;5.90;;;;;;;;;;5094249;28;20467;-44
2023/03/20 09:38:50;;;;;;;11.70;5.67;;;;;;;;;;5094153;28;20412;-44
2023/03/20 09:41:20;;;;;;;10.13;5.57;;;;;;;;;;5093572;28;20553;-44
2023/03/20 09:44:19;;;;;;;9.20;5.20;;;;;;;;;;5090804;28;21026;-44
2023/03/20 09:46:48;;;;;;;11.50;5.53;;;;;;;;;;5078834;28;20423;-45
2023/03/20 09:49:26;;;;;;;9.30;5.90;;;;;;;;;;5093209;28;20476;-45
2023/03/20 09:52:00;;;;;;;8.77;5.83;;;;;;;;;;5083878;28;20823;-45
2023/03/20 09:54:34;;;;;;;6.37;4.77;;;;;;;;;;5092608;28;20468;-45
2023/03/20 09:57:01;;;;;;;13.20;6.43;;;;;;;;;;5091022;28;20511;-45
2023/03/20 09:59:27;;;;;;;9.33;5.60;;;;;;;;;;5093905;28;20388;-44
2023/03/20 10:01:55;;;;;;;9.60;6.93;;;;;;;;;;5093403;28;20449;-44
2023/03/20 10:04:23;;;;;;;6.60;4.73;;;;;;;;;;5093865;28;20427;-44
2023/03/20 10:06:49;;;;;;;8.93;6.00;;;;;;;;;;5093828;28;20415;-44
2023/03/20 10:09:17;;;;;;;7.13;5.03;;;;;;;;;;5093595;28;20412;-44
2023/03/20 10:12:03;;;;;;;7.03;5.40;;;;;;;;;;5091599;28;20489;-45
2023/03/20 10:14:43;;;;;;;9.93;4.73;;;;;;;;;;5093407;28;20892;-45
2023/03/20 10:17:12;;;;;;;6.03;4.80;;;;;;;;;;5083232;28;20779;-45
2023/03/20 10:19:38;;;;;;;6.50;4.20;;;;;;;;;;5090967;28;20418;-44
2023/03/20 10:22:24;;;;;;;9.00;5.03;;;;;;;;;;5086371;28;20458;-45
2023/03/20 10:24:53;;;;;;;9.23;5.60;;;;;;;;;;5091944;28;20392;-45
2023/03/20 10:27:24;;;;;;;8.10;4.60;;;;;;;;;;5093242;28;20400;-45
2023/03/20 10:29:58;;;;;;;5.63;4.20;;;;;;;;;;5090667;28;20926;-45
2023/03/20 10:32:29;;;;;;;8.80;4.00;;;;;;;;;;5098212;28;20427;-44
2023/03/20 10:35:01;;;;;;;6.53;4.10;;;;;;;;;;5093003;28;20466;-44
2023/03/20 10:37:33;;;;;;;11.13;4.07;;;;;;;;;;5092696;28;20453;-44
2023/03/20 10:40:14;;;;;;;10.07;4.67;;;;;;;;;;5091667;28;20768;-45
2023/03/20 10:42:43;;;;;;;5.87;4.17;;;;;;;;;;5095303;28;20438;-45
2023/03/20 10:45:22;;;;;;;6.73;3.70;;;;;;;;;;5084707;28;20419;-45
2023/03/20 10:47:51;;;;;;;7.47;3.97;;;;;;;;;;5092715;28;20411;-45
2023/03/20 10:50:18;;;;;;;6.57;3.10;;;;;;;;;;5089496;28;20403;-45
2023/03/20 10:52:45;;;;;;;7.73;4.03;;;;;;;;;;5092955;28;20514;-44
2023/03/20 10:55:14;;;;;;;4.60;3.47;;;;;;;;;;5087058;28;20860;-45
2023/03/20 10:57:46;;;;;;;6.20;3.50;;;;;;;;;;5097160;28;20420;-45
2023/03/20 11:00:18;;;;;;;4.77;3.37;;;;;;;;;;5088641;28;20415;-45
2023/03/20 11:02:45;;;;;;;4.67;3.30;;;;;;;;;;5092530;28;20431;-44
2023/03/20 11:05:30;;;;;;;5.23;3.07;;;;;;;;;;5092827;28;20407;-44
2023/03/20 11:08:07;;;;;;;4.30;3.00;;;;;;;;;;5090955;28;20914;-44
2023/03/20 11:10:35;;;;;;;7.67;3.43;;;;;;;;;;5091929;28;20418;-44
2023/03/20 11:13:14;;;;;;;7.60;3.60;;;;;;;;;;5092528;28;20524;-45
2023/03/20 11:15:40;;;;;;;5.60;2.83;;;;;;;;;;5092412;28;20510;-45
2023/03/20 11:18:07;;;;;;;7.73;3.50;;;;;;;;;;5095396;28;20895;-45
2023/03/20 11:20:35;;;;;;;4.50;3.13;;;;;;;;;;5091456;28;20475;-45
2023/03/20 11:23:02;;;;;;;4.73;3.27;;;;;;;;;;5085895;28;20852;-44
2023/03/20 11:25:39;;;;;;;4.13;2.60;;;;;;;;;;5092293;28;20997;-44
2023/03/20 11:28:24;;;;;;;5.73;2.83;;;;;;;;;;5087366;28;20431;-44
2023/03/20 11:30:50;;;;;;;4.23;3.33;;;;;;;;;;5089893;28;20418;-42
2023/03/20 11:33:16;;;;;;;9.50;3.03;;;;;;;;;;5091858;28;20450;-42
2023/03/20 11:35:46;;;;;;;4.37;2.80;;;;;;;;;;5090970;28;20461;-43
2023/03/20 11:38:12;;;;;;;15.53;3.80;;;;;;;;;;5086467;28;20402;-42
2023/03/20 11:40:38;;;;;;;14.73;3.43;;;;;;;;;;5091380;28;20406;-43
2023/03/20 11:43:24;;;;;;;3.20;3.00;;;;;;;;;;5093730;28;20452;-43
2023/03/20 11:45:53;;;;;;;11.23;2.70;;;;;;;;;;5091942;28;20507;-43
2023/03/20 11:48:21;;;;;;;3.13;2.43;;;;;;;;;;5091854;28;20411;-45
2023/03/20 11:51:00;;;;;;;3.07;2.87;;;;;;;;;;5090156;28;20417;-42
2023/03/20 11:53:29;;;;;;;6.10;2.67;;;;;;;;;;5089000;28;20475;-45
2023/03/20 11:56:04;;;;;;;7.70;2.70;;;;;;;;;;5091615;28;21018;-43
2023/03/20 11:58:31;;;;;;;2.53;2.20;;;;;;;;;;5086591;28;20436;-43
2023/03/20 12:00:57;;;;;;;3.40;2.80;;;;;;;;;;5089572;28;20419;-42
2023/03/20 12:04:02;;;;;;;4.10;2.47;;;;;;;;;;5092523;28;20431;-42
2023/03/20 12:06:37;;;;;;;5.27;3.50;;;;;;;;;;5083781;28;20429;-42
2023/03/20 12:09:06;;;;;;;4.40;2.77;;;;;;;;;;5088972;28;20411;-43
2023/03/20 12:11:43;;;;;;;3.53;2.83;;;;;;;;;;5085611;28;20479;-43
2023/03/20 12:14:16;;;;;;;7.77;3.10;;;;;;;;;;5080496;28;20779;-42
2023/03/20 12:16:42;;;;;;;6.03;3.07;;;;;;;;;;5086953;28;20551;-43
2023/03/20 12:19:12;;;;;;;6.20;2.90;;;;;;;;;;5091258;28;20466;-43
2023/03/20 12:22:11;;;;;;;6.07;3.67;;;;;;;;;;5088040;28;20807;-46
2023/03/20 12:24:41;;;;;;;4.10;2.77;;;;;;;;;;5074278;28;20479;-43
2023/03/20 12:27:16;;;;;;;3.97;2.53;;;;;;;;;;5085433;28;20912;-43
2023/03/20 12:29:54;;;;;;;7.20;2.87;;;;;;;;;;5091487;28;20403;-42
2023/03/20 12:32:26;;;;;;;2.90;2.60;;;;;;;;;;5084119;28;20444;-42
2023/03/20 12:34:56;;;;;;;4.03;2.70;;;;;;;;;;5091367;28;20404;-42
2023/03/20 12:37:22;;;;;;;8.33;3.10;;;;;;;;;;5095284;28;20459;-42
2023/03/20 12:39:52;;;;;;;4.00;2.63;;;;;;;;;;5093979;28;20498;-42
2023/03/20 12:42:30;;;;;;;3.83;2.93;;;;;;;;;;5090814;28;20833;-43
2023/03/20 12:45:10;;;;;;;6.07;3.40;;;;;;;;;;5093185;28;20411;-44
2023/03/20 12:47:49;;;;;;;4.63;3.00;;;;;;;;;;5090012;28;20473;-42
2023/03/20 12:50:34;;;;;;;5.27;3.50;;;;;;;;;;5093226;28;20820;-42
2023/03/20 12:53:18;;;;;;;8.93;3.50;;;;;;;;;;5090263;28;20448;-43
2023/03/20 12:55:53;;;;;;;4.80;3.40;;;;;;;;;;5090858;28;20461;-44
2023/03/20 12:58:22;;;;;;;10.20;3.60;;;;;;;;;;5093912;28;20411;-43
2023/03/20 13:00:59;;;;;;;7.57;4.03;;;;;;;;;;5093601;28;20417;-43
2023/03/20 13:03:44;;;;;;;7.07;3.53;;;;;;;;;;5100737;28;20423;-43
2023/03/20 13:06:13;;;;;;;7.70;3.87;;;;;;;;;;5090972;28;20446;-43
2023/03/20 13:09:00;;;;;;;6.00;4.40;;;;;;;;;;5094499;28;20418;-43
2023/03/20 13:11:41;;;;;;;5.17;3.20;;;;;;;;;;5088474;28;20495;-42
2023/03/20 13:14:18;;;;;;;6.60;3.87;;;;;;;;;;5093880;28;20517;-42
2023/03/20 13:17:01;;;;;;;5.00;3.37;;;;;;;;;;5094570;28;20890;-44
2023/03/20 13:19:36;;;;;;;5.60;3.30;;;;;;;;;;5094587;28;20403;-42
2023/03/20 13:22:23;;;;;;;8.87;3.40;;;;;;;;;;5093726;28;20399;-43
2023/03/20 13:25:01;;;;;;;5.03;3.10;;;;;;;;;;5090645;28;20428;-43
2023/03/20 13:27:36;;;;;;;3.47;3.23;;;;;;;;;;5095443;28;20563;-43
2023/03/20 13:30:12;;;;;;;4.60;3.20;;;;;;;;;;5094829;28;20412;-43
2023/03/20 13:32:38;;;;;;;4.87;3.40;;;;;;;;;;5094427;28;20450;-43
2023/03/20 13:35:20;;;;;;;4.53;3.50;;;;;;;;;;5093882;28;20488;-43
2023/03/20 13:38:07;;;;;;;3.97;3.10;;;;;;;;;;5094116;28;20893;-43
2023/03/20 13:40:34;;;;;;;3.10;2.73;;;;;;;;;;5088987;28;20399;-42
2023/03/20 13:43:19;;;;;;;6.17;2.63;;;;;;;;;;5093489;28;20480;-42
2023/03/20 13:45:46;;;;;;;3.50;2.40;;;;;;;;;;5094382;28;20408;-43
2023/03/20 13:48:22;;;;;;;11.20;2.63;;;;;;;;;;5096989;28;20407;-44
2023/03/20 13:50:51;;;;;;;2.43;2.23;;;;;;;;;;5093998;28;20814;-43
2023/03/20 13:53:24;;;;;;;5.97;2.70;;;;;;;;;;5092738;28;20438;-47
2023/03/20 13:55:54;;;;;;;3.73;2.13;;;;;;;;;;5089909;28;20466;-43
2023/03/20 13:58:19;;;;;;;4.53;2.57;;;;;;;;;;5091427;28;20501;-43
2023/03/20 14:00:45;;;;;;;6.50;2.57;;;;;;;;;;5089866;28;20813;-43
2023/03/20 14:03:15;;;;;;;8.97;3.27;;;;;;;;;;5100675;28;20505;-42
2023/03/20 14:05:41;;;;;;;5.37;2.53;;;;;;;;;;5093910;28;20434;-42
2023/03/20 14:08:43;;;;;;;2.20;2.10;;;;;;;;;;5094448;28;20412;-43
2023/03/20 14:11:14;;;;;;;9.10;3.50;;;;;;;;;;5070482;28;20861;-42
2023/03/20 14:13:45;;;;;;;4.90;3.03;;;;;;;;;;5088064;28;20803;-42
2023/03/20 14:16:14;;;;;;;11.33;3.93;;;;;;;;;;5089594;28;20466;-48
2023/03/20 14:18:41;;;;;;;3.83;3.13;;;;;;;;;;5093515;28;20931;-43
2023/03/20 14:21:14;;;;;;;4.07;3.57;;;;;;;;;;5095085;28;20415;-43
2023/03/20 14:23:46;;;;;;;4.30;3.37;;;;;;;;;;5096992;28;20424;-42
2023/03/20 14:26:23;;;;;;;3.17;2.90;;;;;;;;;;5085112;28;20807;-42
2023/03/20 14:28:58;;;;;;;8.60;2.70;;;;;;;;;;5089413;28;20443;-44
2023/03/20 14:31:26;;;;;;;3.50;2.83;;;;;;;;;;5093816;28;20910;-43
2023/03/20 14:33:54;;;;;;;3.97;3.07;;;;;;;;;;5093312;28;20431;-43
2023/03/20 14:36:26;;;;;;;3.10;2.77;;;;;;;;;;5093343;28;20489;-42
2023/03/20 14:38:57;;;;;;;5.27;3.17;;;;;;;;;;5092592;28;20837;-42
2023/03/20 14:41:29;;;;;;;5.33;3.70;;;;;;;;;;5092716;28;20411;-42
2023/03/20 14:44:00;;;;;;;3.87;3.47;;;;;;;;;;5093055;28;20489;-43
2023/03/20 14:46:31;;;;;;;5.60;3.17;;;;;;;;;;5096553;28;20841;-43